sensor_id;sensor_type;location;lat;lon;timestamp;pressure;altitude;pressure_sealevel;temperature;humidity
37132;BME280;23035;50.032;21.978;2023-04-15T00:03:50;66515.66;;;12.79;100.00
37132;BME280;23035;50.032;21.978;2023-04-15T00:08:55;66462.09;;;12.33;100.00
37132;BME280;23035;50.032;21.978;2023-04-15T00:14:01;66425.97;;;11.94;100.00
37132;BME280;23035;50.032;21.978;2023-04-15T00:19:05;66390.97;;;11.58;100.00
37132;BME280;23035;50.032;21.978;2023-04-15T00:24:09;66469.84;;;12.30;100.00
37132;BME280;23035;50.032;21.978;2023-04-15T00:29:14;66402.78;;;11.69;100.00
37132;BME280;23035;50.032;21.978;2023-04-15T00:34:18;66510.13;;;12.69;100.00
37132;BME280;23035;50.032;21.978;2023-04-15T00:39:22;66523.72;;;12.86;100.00
37132;BME280;23035;50.032;21.978;2023-04-15T00:44:28;66480.06;;;12.40;100.00
37132;BME280;23035;50.032;21.978;2023-04-15T00:49:32;66437.16;;;12.02;100.00
37132;BME280;23035;50.032;21.978;2023-04-15T00:54:36;66405.28;;;11.67;100.00
37132;BME280;23035;50.032;21.978;2023-04-15T00:59:41;66239.75;;;10.17;100.00
37132;BME280;23035;50.032;21.978;2023-04-15T01:04:47;66303.59;;;10.78;100.00
37132;BME280;23035;50.032;21.978;2023-04-15T01:09:51;66380.22;;;11.48;100.00
37132;BME280;23035;50.032;21.978;2023-04-15T01:14:58;66377.47;;;11.43;100.00
37132;BME280;23035;50.032;21.978;2023-04-15T01:20:03;66437.84;;;12.07;100.00
37132;BME280;23035;50.032;21.978;2023-04-15T01:25:10;66416.31;;;11.85;100.00
37132;BME280;23035;50.032;21.978;2023-04-15T01:30:16;66408.22;;;11.77;100.00
37132;BME280;23035;50.032;21.978;2023-04-15T01:35:21;66395.88;;;11.65;100.00
37132;BME280;23035;50.032;21.978;2023-04-15T01:40:26;66274.78;;;10.55;100.00
37132;BME280;23035;50.032;21.978;2023-04-15T01:45:31;66209.91;;;9.94;100.00
37132;BME280;23035;50.032;21.978;2023-04-15T01:50:38;66223.84;;;9.92;100.00
37132;BME280;23035;50.032;21.978;2023-04-15T01:55:42;66234.28;;;10.10;100.00
37132;BME280;23035;50.032;21.978;2023-04-15T02:00:50;66271.94;;;10.48;100.00
37132;BME280;23035;50.032;21.978;2023-04-15T02:05:55;66345.50;;;11.20;100.00
37132;BME280;23035;50.032;21.978;2023-04-15T02:10:59;66340.50;;;11.10;100.00
37132;BME280;23035;50.032;21.978;2023-04-15T02:16:14;66305.13;;;10.77;100.00
37132;BME280;23035;50.032;21.978;2023-04-15T02:21:18;66285.81;;;10.58;100.00
37132;BME280;23035;50.032;21.978;2023-04-15T02:26:23;66196.69;;;9.71;100.00
37132;BME280;23035;50.032;21.978;2023-04-15T02:31:30;66176.03;;;9.59;100.00
37132;BME280;23035;50.032;21.978;2023-04-15T02:36:38;66165.69;;;9.44;100.00
37132;BME280;23035;50.032;21.978;2023-04-15T02:41:42;66112.28;;;8.99;100.00
37132;BME280;23035;50.032;21.978;2023-04-15T02:46:51;66208.03;;;9.85;100.00
37132;BME280;23035;50.032;21.978;2023-04-15T02:51:56;66162.94;;;9.39;100.00
37132;BME280;23035;50.032;21.978;2023-04-15T02:57:01;66175.78;;;9.52;100.00
37132;BME280;23035;50.032;21.978;2023-04-15T03:02:10;66132.56;;;9.15;100.00
37132;BME280;23035;50.032;21.978;2023-04-15T03:07:14;66171.59;;;9.50;100.00
37132;BME280;23035;50.032;21.978;2023-04-15T03:12:18;66175.50;;;9.59;100.00
37132;BME280;23035;50.032;21.978;2023-04-15T03:17:25;66211.34;;;9.90;100.00
37132;BME280;23035;50.032;21.978;2023-04-15T03:22:31;66197.47;;;9.80;100.00
37132;BME280;23035;50.032;21.978;2023-04-15T03:27:35;66161.47;;;9.43;100.00
37132;BME280;23035;50.032;21.978;2023-04-15T03:32:40;66165.25;;;9.46;100.00
37132;BME280;23035;50.032;21.978;2023-04-15T03:37:44;66182.22;;;9.58;100.00
37132;BME280;23035;50.032;21.978;2023-04-15T03:42:50;66155.00;;;9.34;100.00
37132;BME280;23035;50.032;21.978;2023-04-15T03:47:56;66156.59;;;9.36;100.00
37132;BME280;23035;50.032;21.978;2023-04-15T03:53:17;66114.28;;;8.96;100.00
37132;BME280;23035;50.032;21.978;2023-04-15T03:58:22;66180.78;;;9.61;100.00
37132;BME280;23035;50.032;21.978;2023-04-15T04:03:27;66260.06;;;10.34;100.00
37132;BME280;23035;50.032;21.978;2023-04-15T04:08:31;66225.19;;;10.01;100.00
37132;BME280;23035;50.032;21.978;2023-04-15T04:13:35;66221.53;;;10.00;100.00
37132;BME280;23035;50.032;21.978;2023-04-15T04:18:41;66310.91;;;10.80;100.00
37132;BME280;23035;50.032;21.978;2023-04-15T04:23:44;66211.88;;;9.91;100.00
37132;BME280;23035;50.032;21.978;2023-04-15T04:28:48;66292.25;;;10.65;100.00
37132;BME280;23035;50.032;21.978;2023-04-15T04:33:54;66234.28;;;10.10;100.00
37132;BME280;23035;50.032;21.978;2023-04-15T04:38:58;66219.91;;;9.98;100.00
37132;BME280;23035;50.032;21.978;2023-04-15T04:44:03;66216.06;;;9.92;100.00
37132;BME280;23035;50.032;21.978;2023-04-15T04:49:09;66301.72;;;10.69;100.00
37132;BME280;23035;50.032;21.978;2023-04-15T04:54:12;66285.00;;;10.65;100.00
37132;BME280;23035;50.032;21.978;2023-04-15T04:59:17;66284.91;;;10.62;100.00
37132;BME280;23035;50.032;21.978;2023-04-15T05:04:22;66213.94;;;9.90;100.00
37132;BME280;23035;50.032;21.978;2023-04-15T05:09:27;66160.34;;;9.39;100.00
37132;BME280;23035;50.032;21.978;2023-04-15T05:14:33;66168.53;;;9.52;100.00
37132;BME280;23035;50.032;21.978;2023-04-15T05:19:41;66152.41;;;9.34;100.00
37132;BME280;23035;50.032;21.978;2023-04-15T05:24:45;66123.81;;;9.02;100.00
37132;BME280;23035;50.032;21.978;2023-04-15T05:29:49;66206.88;;;9.81;100.00
37132;BME280;23035;50.032;21.978;2023-04-15T05:34:55;66211.41;;;9.93;100.00
37132;BME280;23035;50.032;21.978;2023-04-15T05:39:58;66185.78;;;9.71;100.00
37132;BME280;23035;50.032;21.978;2023-04-15T05:45:03;66172.13;;;9.51;100.00
37132;BME280;23035;50.032;21.978;2023-04-15T05:50:11;66207.94;;;9.82;100.00
37132;BME280;23035;50.032;21.978;2023-04-15T05:55:15;66194.63;;;9.72;100.00
37132;BME280;23035;50.032;21.978;2023-04-15T06:00:20;66219.91;;;9.98;100.00
37132;BME280;23035;50.032;21.978;2023-04-15T06:05:25;66231.69;;;10.10;100.00
37132;BME280;23035;50.032;21.978;2023-04-15T06:10:29;66270.34;;;10.46;100.00
37132;BME280;23035;50.032;21.978;2023-04-15T06:15:38;66401.25;;;11.70;100.00
37132;BME280;23035;50.032;21.978;2023-04-15T06:20:44;66321.28;;;10.95;100.00
37132;BME280;23035;50.032;21.978;2023-04-15T06:25:47;66358.75;;;11.28;100.00
37132;BME280;23035;50.032;21.978;2023-04-15T06:30:51;66498.94;;;12.60;100.00
37132;BME280;23035;50.032;21.978;2023-04-15T06:35:58;66452.25;;;12.19;100.00
37132;BME280;23035;50.032;21.978;2023-04-15T06:41:02;66431.88;;;11.99;100.00
37132;BME280;23035;50.032;21.978;2023-04-15T06:46:07;66547.38;;;13.09;100.00
37132;BME280;23035;50.032;21.978;2023-04-15T06:51:12;66633.47;;;13.93;100.00
37132;BME280;23035;50.032;21.978;2023-04-15T06:56:16;66657.50;;;14.11;100.00
37132;BME280;23035;50.032;21.978;2023-04-15T07:01:20;66616.03;;;13.69;100.00
37132;BME280;23035;50.032;21.978;2023-04-15T07:06:26;66562.44;;;13.23;100.00
37132;BME280;23035;50.032;21.978;2023-04-15T07:11:30;66601.28;;;13.65;100.00
37132;BME280;23035;50.032;21.978;2023-04-15T07:16:34;66553.81;;;13.15;100.00
37132;BME280;23035;50.032;21.978;2023-04-15T07:21:40;66628.63;;;13.88;100.00
37132;BME280;23035;50.032;21.978;2023-04-15T07:26:44;66656.03;;;14.14;100.00
37132;BME280;23035;50.032;21.978;2023-04-15T07:31:49;66715.63;;;14.66;95.11
37132;BME280;23035;50.032;21.978;2023-04-15T07:36:54;66657.50;;;14.11;98.82
37132;BME280;23035;50.032;21.978;2023-04-15T07:41:59;66700.63;;;14.54;95.82
37132;BME280;23035;50.032;21.978;2023-04-15T07:47:12;66666.25;;;14.24;93.08
37132;BME280;23035;50.032;21.978;2023-04-15T07:52:19;66682.88;;;14.37;90.65
37132;BME280;23035;50.032;21.978;2023-04-15T07:57:23;66644.75;;;14.03;95.47
37132;BME280;23035;50.032;21.978;2023-04-15T08:02:28;66629.06;;;13.86;98.61
37132;BME280;23035;50.032;21.978;2023-04-15T08:07:33;66654.28;;;14.07;95.26
37132;BME280;23035;50.032;21.978;2023-04-15T08:12:37;66704.41;;;14.57;95.09
37132;BME280;23035;50.032;21.978;2023-04-15T08:17:42;66687.88;;;14.47;90.77
37132;BME280;23035;50.032;21.978;2023-04-15T08:22:47;66650.50;;;14.04;94.05
37132;BME280;23035;50.032;21.978;2023-04-15T08:27:54;66695.19;;;14.46;92.28
37132;BME280;23035;50.032;21.978;2023-04-15T08:32:59;66764.69;;;15.14;88.42
37132;BME280;23035;50.032;21.978;2023-04-15T08:38:05;66787.88;;;15.39;86.56
37132;BME280;23035;50.032;21.978;2023-04-15T08:43:11;66893.44;;;16.39;81.99
37132;BME280;23035;50.032;21.978;2023-04-15T08:48:16;66888.06;;;16.33;80.49
37132;BME280;23035;50.032;21.978;2023-04-15T08:53:23;66849.75;;;15.95;83.77
37132;BME280;23035;50.032;21.978;2023-04-15T08:58:27;66756.66;;;15.09;90.87
37132;BME280;23035;50.032;21.978;2023-04-15T09:03:32;66834.75;;;15.83;83.18
37132;BME280;23035;50.032;21.978;2023-04-15T09:08:39;66854.44;;;15.94;82.98
37132;BME280;23035;50.032;21.978;2023-04-15T09:13:46;66834.06;;;15.77;87.54
37132;BME280;23035;50.032;21.978;2023-04-15T09:18:50;66782.34;;;15.29;87.72
37132;BME280;23035;50.032;21.978;2023-04-15T09:23:57;66682.41;;;14.39;93.89
37132;BME280;23035;50.032;21.978;2023-04-15T09:29:05;66898.31;;;16.43;79.71
37132;BME280;23035;50.032;21.978;2023-04-15T09:34:10;66966.59;;;17.03;74.51
37132;BME280;23035;50.032;21.978;2023-04-15T09:39:16;66911.16;;;16.53;77.71
37132;BME280;23035;50.032;21.978;2023-04-15T09:44:21;66953.22;;;16.92;72.42
37132;BME280;23035;50.032;21.978;2023-04-15T09:49:26;67018.28;;;17.49;69.84
37132;BME280;23035;50.032;21.978;2023-04-15T09:54:36;67051.13;;;17.77;67.54
37132;BME280;23035;50.032;21.978;2023-04-15T09:59:41;66955.97;;;16.98;69.87
37132;BME280;23035;50.032;21.978;2023-04-15T10:04:47;67030.22;;;17.63;62.61
37132;BME280;23035;50.032;21.978;2023-04-15T10:09:54;67013.09;;;17.52;60.06
37132;BME280;23035;50.032;21.978;2023-04-15T10:15:03;67030.34;;;17.68;63.17
37132;BME280;23035;50.032;21.978;2023-04-15T10:20:09;67069.66;;;18.02;57.25
37132;BME280;23035;50.032;21.978;2023-04-15T10:25:16;67098.81;;;18.30;58.87
37132;BME280;23035;50.032;21.978;2023-04-15T10:30:21;67191.69;;;19.20;54.39
37132;BME280;23035;50.032;21.978;2023-04-15T10:35:26;67151.63;;;18.77;58.72
37132;BME280;23035;50.032;21.978;2023-04-15T10:40:33;67069.19;;;18.04;58.92
37132;BME280;23035;50.032;21.978;2023-04-15T10:45:43;66927.34;;;16.68;64.65
37132;BME280;23035;50.032;21.978;2023-04-15T10:50:55;66912.22;;;16.54;67.41
37132;BME280;23035;50.032;21.978;2023-04-15T10:56:03;66861.59;;;16.06;67.89
37132;BME280;23035;50.032;21.978;2023-04-15T11:01:07;66727.47;;;14.77;74.32
37132;BME280;23035;50.032;21.978;2023-04-15T11:06:11;66821.81;;;15.71;71.99
37132;BME280;23035;50.032;21.978;2023-04-15T11:11:17;66940.88;;;16.83;63.72
37132;BME280;23035;50.032;21.978;2023-04-15T11:16:21;66850.75;;;15.93;68.30
37132;BME280;23035;50.032;21.978;2023-04-15T11:21:25;66940.72;;;16.78;68.06
37132;BME280;23035;50.032;21.978;2023-04-15T11:26:32;67017.34;;;17.53;64.19
37132;BME280;23035;50.032;21.978;2023-04-15T11:31:36;67022.34;;;17.63;65.28
37132;BME280;23035;50.032;21.978;2023-04-15T11:36:42;66978.53;;;17.16;64.69
37132;BME280;23035;50.032;21.978;2023-04-15T11:41:48;66891.13;;;16.31;71.37
37132;BME280;23035;50.032;21.978;2023-04-15T11:46:53;67207.34;;;19.35;61.04
37132;BME280;23035;50.032;21.978;2023-04-15T11:51:58;67308.34;;;20.30;53.69
37132;BME280;23035;50.032;21.978;2023-04-15T11:57:03;66997.94;;;17.35;61.91
37132;BME280;23035;50.032;21.978;2023-04-15T12:02:11;67008.66;;;17.42;64.59
37132;BME280;23035;50.032;21.978;2023-04-15T12:07:16;66913.25;;;16.52;67.78
37132;BME280;23035;50.032;21.978;2023-04-15T12:12:22;66794.78;;;15.43;69.82
37132;BME280;23035;50.032;21.978;2023-04-15T12:17:33;66737.22;;;14.88;73.06
37132;BME280;23035;50.032;21.978;2023-04-15T12:23:04;66569.50;;;13.32;100.00
37132;BME280;23035;50.032;21.978;2023-04-15T12:28:11;66343.91;;;11.18;100.00
37132;BME280;23035;50.032;21.978;2023-04-15T12:33:16;66266.06;;;10.42;100.00
37132;BME280;23035;50.032;21.978;2023-04-15T12:38:20;66305.72;;;10.80;100.00
37132;BME280;23035;50.032;21.978;2023-04-15T12:43:27;66342.69;;;11.12;100.00
37132;BME280;23035;50.032;21.978;2023-04-15T12:48:32;66378.53;;;11.44;100.00
37132;BME280;23035;50.032;21.978;2023-04-15T12:53:36;66420.59;;;11.89;100.00
37132;BME280;23035;50.032;21.978;2023-04-15T12:58:41;66601.06;;;13.57;100.00
37132;BME280;23035;50.032;21.978;2023-04-15T13:03:46;66533.91;;;12.96;100.00
37132;BME280;23035;50.032;21.978;2023-04-15T13:08:52;66656.56;;;14.15;100.00
37132;BME280;23035;50.032;21.978;2023-04-15T13:14:03;66547.38;;;13.09;100.00
37132;BME280;23035;50.032;21.978;2023-04-15T13:19:08;66444.22;;;12.11;100.00
37132;BME280;23035;50.032;21.978;2023-04-15T13:24:12;66453.44;;;12.22;100.00
37132;BME280;23035;50.032;21.978;2023-04-15T13:29:18;66417.38;;;11.86;100.00
37132;BME280;23035;50.032;21.978;2023-04-15T13:34:22;66430.72;;;11.96;100.00
37132;BME280;23035;50.032;21.978;2023-04-15T13:39:27;66357.22;;;11.29;100.00
37132;BME280;23035;50.032;21.978;2023-04-15T13:44:32;66311.63;;;10.85;100.00
37132;BME280;23035;50.032;21.978;2023-04-15T13:49:36;66359.94;;;11.31;100.00
37132;BME280;23035;50.032;21.978;2023-04-15T13:54:41;66432.94;;;12.00;100.00
37132;BME280;23035;50.032;21.978;2023-04-15T13:59:46;66389.44;;;11.59;100.00
37132;BME280;23035;50.032;21.978;2023-04-15T14:04:51;66307.34;;;10.81;100.00
37132;BME280;23035;50.032;21.978;2023-04-15T14:09:55;66284.28;;;10.59;100.00
37132;BME280;23035;50.032;21.978;2023-04-15T14:15:01;66250.88;;;10.23;100.00
37132;BME280;23035;50.032;21.978;2023-04-15T14:20:07;66284.44;;;10.65;100.00
37132;BME280;23035;50.032;21.978;2023-04-15T14:25:11;66272.47;;;10.48;100.00
37132;BME280;23035;50.032;21.978;2023-04-15T14:30:33;66262.81;;;10.39;100.00
37132;BME280;23035;50.032;21.978;2023-04-15T14:35:38;66242.00;;;10.22;100.00
37132;BME280;23035;50.032;21.978;2023-04-15T14:40:42;66308.44;;;10.82;100.00
37132;BME280;23035;50.032;21.978;2023-04-15T14:45:49;66268.47;;;10.37;100.00
37132;BME280;23035;50.032;21.978;2023-04-15T14:50:53;66258.47;;;10.32;100.00
37132;BME280;23035;50.032;21.978;2023-04-15T14:55:58;66239.84;;;10.20;100.00
37132;BME280;23035;50.032;21.978;2023-04-15T15:01:04;66312.25;;;10.88;100.00
37132;BME280;23035;50.032;21.978;2023-04-15T15:06:09;66367.44;;;11.38;100.00
37132;BME280;23035;50.032;21.978;2023-04-15T15:11:13;66424.91;;;11.93;100.00
37132;BME280;23035;50.032;21.978;2023-04-15T15:16:25;66321.84;;;10.95;100.00
37132;BME280;23035;50.032;21.978;2023-04-15T15:21:31;66319.22;;;10.95;100.00
37132;BME280;23035;50.032;21.978;2023-04-15T15:26:35;66397.41;;;11.64;100.00
37132;BME280;23035;50.032;21.978;2023-04-15T15:31:42;66441.00;;;12.08;100.00
37132;BME280;23035;50.032;21.978;2023-04-15T15:36:47;66431.88;;;11.99;100.00
37132;BME280;23035;50.032;21.978;2023-04-15T15:41:51;66467.25;;;12.30;100.00
37132;BME280;23035;50.032;21.978;2023-04-15T15:46:58;66416.38;;;11.87;100.00
37132;BME280;23035;50.032;21.978;2023-04-15T15:52:04;66498.94;;;12.60;100.00
37132;BME280;23035;50.032;21.978;2023-04-15T15:57:10;66306.91;;;10.83;100.00
37132;BME280;23035;50.032;21.978;2023-04-15T16:02:17;66316.56;;;10.93;100.00
37132;BME280;23035;50.032;21.978;2023-04-15T16:07:37;66220.53;;;10.01;100.00
37132;BME280;23035;50.032;21.978;2023-04-15T16:12:42;66327.56;;;10.96;100.00
37132;BME280;23035;50.032;21.978;2023-04-15T16:17:49;66202.75;;;9.82;100.00
37132;BME280;23035;50.032;21.978;2023-04-15T16:22:55;66140.16;;;9.25;100.00
37132;BME280;23035;50.032;21.978;2023-04-15T16:28:00;66090.88;;;8.78;100.00
37132;BME280;23035;50.032;21.978;2023-04-15T16:33:22;66175.44;;;9.56;100.00
37132;BME280;23035;50.032;21.978;2023-04-15T16:38:26;66138.38;;;9.18;100.00
37132;BME280;23035;50.032;21.978;2023-04-15T16:43:31;66119.25;;;9.05;100.00
37132;BME280;23035;50.032;21.978;2023-04-15T16:48:37;66127.19;;;9.10;100.00
37132;BME280;23035;50.032;21.978;2023-04-15T16:53:44;66273.09;;;10.51;100.00
37132;BME280;23035;50.032;21.978;2023-04-15T16:58:52;66230.56;;;10.06;100.00
37132;BME280;23035;50.032;21.978;2023-04-15T17:04:01;66178.56;;;9.57;100.00
37132;BME280;23035;50.032;21.978;2023-04-15T17:09:07;66199.47;;;9.76;100.00
37132;BME280;23035;50.032;21.978;2023-04-15T17:14:12;66172.75;;;9.54;100.00
37132;BME280;23035;50.032;21.978;2023-04-15T17:19:20;66244.69;;;10.24;100.00
37132;BME280;23035;50.032;21.978;2023-04-15T17:24:25;66209.81;;;9.91;100.00
37132;BME280;23035;50.032;21.978;2023-04-15T17:29:31;66187.56;;;9.63;100.00
37132;BME280;23035;50.032;21.978;2023-04-15T17:34:37;66115.97;;;9.00;100.00
37132;BME280;23035;50.032;21.978;2023-04-15T17:39:52;66141.66;;;9.24;100.00
37132;BME280;23035;50.032;21.978;2023-04-15T17:44:57;66150.78;;;9.33;100.00
37132;BME280;23035;50.032;21.978;2023-04-15T17:50:03;66174.91;;;9.56;100.00
37132;BME280;23035;50.032;21.978;2023-04-15T17:55:07;66178.56;;;9.57;100.00
37132;BME280;23035;50.032;21.978;2023-04-15T18:00:13;66208.91;;;9.95;100.00
37132;BME280;23035;50.032;21.978;2023-04-15T18:05:20;66189.34;;;9.69;100.00
37132;BME280;23035;50.032;21.978;2023-04-15T18:10:24;66174.91;;;9.56;100.00
37132;BME280;23035;50.032;21.978;2023-04-15T18:15:29;66176.50;;;9.57;100.00
37132;BME280;23035;50.032;21.978;2023-04-15T18:20:34;66180.09;;;9.56;100.00
37132;BME280;23035;50.032;21.978;2023-04-15T18:25:44;66180.97;;;9.66;100.00
37132;BME280;23035;50.032;21.978;2023-04-15T18:30:48;66205.34;;;9.82;100.00
37132;BME280;23035;50.032;21.978;2023-04-15T18:35:55;66156.66;;;9.38;100.00
37132;BME280;23035;50.032;21.978;2023-04-15T18:40:59;66193.09;;;9.73;100.00
37132;BME280;23035;50.032;21.978;2023-04-15T18:46:04;66195.97;;;9.81;100.00
37132;BME280;23035;50.032;21.978;2023-04-15T18:51:14;66207.41;;;9.82;100.00
37132;BME280;23035;50.032;21.978;2023-04-15T18:56:18;66172.03;;;9.48;100.00
37132;BME280;23035;50.032;21.978;2023-04-15T19:01:23;66154.00;;;9.36;100.00
37132;BME280;23035;50.032;21.978;2023-04-15T19:06:29;66164.78;;;9.48;100.00
37132;BME280;23035;50.032;21.978;2023-04-15T19:11:33;66151.75;;;9.31;100.00
37132;BME280;23035;50.032;21.978;2023-04-15T19:16:38;66128.91;;;9.14;100.00
37132;BME280;23035;50.032;21.978;2023-04-15T19:21:44;66207.50;;;9.84;100.00
37132;BME280;23035;50.032;21.978;2023-04-15T19:26:52;66069.38;;;8.55;100.00
37132;BME280;23035;50.032;21.978;2023-04-15T19:31:56;66101.50;;;8.86;100.00
37132;BME280;23035;50.032;21.978;2023-04-15T19:37:02;66138.44;;;9.21;100.00
37132;BME280;23035;50.032;21.978;2023-04-15T19:42:07;66079.09;;;8.67;100.00
37132;BME280;23035;50.032;21.978;2023-04-15T19:47:11;66201.06;;;9.78;100.00
37132;BME280;23035;50.032;21.978;2023-04-15T19:52:17;66131.31;;;9.09;100.00
37132;BME280;23035;50.032;21.978;2023-04-15T19:57:21;66128.91;;;9.14;100.00
37132;BME280;23035;50.032;21.978;2023-04-15T20:02:28;66003.16;;;7.97;100.00
37132;BME280;23035;50.032;21.978;2023-04-15T20:07:35;65973.34;;;7.59;100.00
37132;BME280;23035;50.032;21.978;2023-04-15T20:12:39;65989.59;;;7.80;100.00
37132;BME280;23035;50.032;21.978;2023-04-15T20:17:54;66078.47;;;8.64;100.00
37132;BME280;23035;50.032;21.978;2023-04-15T20:23:01;66141.66;;;9.24;100.00
37132;BME280;23035;50.032;21.978;2023-04-15T20:28:05;66207.06;;;9.86;100.00
37132;BME280;23035;50.032;21.978;2023-04-15T20:33:14;66145.41;;;9.28;100.00
37132;BME280;23035;50.032;21.978;2023-04-15T20:38:20;66122.47;;;9.08;100.00
37132;BME280;23035;50.032;21.978;2023-04-15T20:43:24;66114.34;;;8.98;100.00
37132;BME280;23035;50.032;21.978;2023-04-15T20:48:28;66109.88;;;8.89;100.00
37132;BME280;23035;50.032;21.978;2023-04-15T20:53:34;66096.06;;;8.78;100.00
37132;BME280;23035;50.032;21.978;2023-04-15T20:58:38;66170.97;;;9.47;100.00
37132;BME280;23035;50.032;21.978;2023-04-15T21:03:43;66081.22;;;8.69;100.00
37132;BME280;23035;50.032;21.978;2023-04-15T21:08:49;66167.19;;;9.43;100.00
37132;BME280;23035;50.032;21.978;2023-04-15T21:13:54;66108.28;;;8.87;100.00
37132;BME280;23035;50.032;21.978;2023-04-15T21:18:59;66111.75;;;8.98;100.00
37132;BME280;23035;50.032;21.978;2023-04-15T21:24:05;66029.63;;;8.15;100.00
37132;BME280;23035;50.032;21.978;2023-04-15T21:29:10;66065.06;;;8.51;100.00
37132;BME280;23035;50.032;21.978;2023-04-15T21:34:16;65943.56;;;7.36;100.00
37132;BME280;23035;50.032;21.978;2023-04-15T21:39:21;65945.59;;;7.35;100.00
37132;BME280;23035;50.032;21.978;2023-04-15T21:44:26;66041.41;;;8.26;100.00
37132;BME280;23035;50.032;21.978;2023-04-15T21:49:31;66016.34;;;8.05;100.00
37132;BME280;23035;50.032;21.978;2023-04-15T21:54:37;65994.31;;;7.82;100.00
37132;BME280;23035;50.032;21.978;2023-04-15T21:59:41;66008.41;;;8.00;100.00
37132;BME280;23035;50.032;21.978;2023-04-15T22:04:46;66061.78;;;8.46;100.00
37132;BME280;23035;50.032;21.978;2023-04-15T22:09:51;66024.28;;;8.10;100.00
37132;BME280;23035;50.032;21.978;2023-04-15T22:14:55;66055.34;;;8.40;100.00
37132;BME280;23035;50.032;21.978;2023-04-15T22:20:00;66054.91;;;8.42;100.00
37132;BME280;23035;50.032;21.978;2023-04-15T22:25:07;66082.13;;;8.65;100.00
37132;BME280;23035;50.032;21.978;2023-04-15T22:30:11;66039.72;;;8.22;100.00
37132;BME280;23035;50.032;21.978;2023-04-15T22:35:16;66011.00;;;8.00;100.00
37132;BME280;23035;50.032;21.978;2023-04-15T22:40:22;66029.38;;;8.22;100.00
37132;BME280;23035;50.032;21.978;2023-04-15T22:45:26;66025.44;;;8.14;100.00
37132;BME280;23035;50.032;21.978;2023-04-15T22:50:31;66066.16;;;8.52;100.00
37132;BME280;23035;50.032;21.978;2023-04-15T22:55:36;66080.44;;;8.61;100.00
37132;BME280;23035;50.032;21.978;2023-04-15T23:00:41;66073.72;;;8.62;100.00
37132;BME280;23035;50.032;21.978;2023-04-15T23:05:45;66060.06;;;8.42;100.00
37132;BME280;23035;50.032;21.978;2023-04-15T23:10:51;66063.03;;;8.52;100.00
37132;BME280;23035;50.032;21.978;2023-04-15T23:15:55;66072.03;;;8.58;100.00
37132;BME280;23035;50.032;21.978;2023-04-15T23:20:59;65978.88;;;7.69;100.00
37132;BME280;23035;50.032;21.978;2023-04-15T23:26:05;65879.22;;;6.70;100.00
37132;BME280;23035;50.032;21.978;2023-04-15T23:31:09;65946.78;;;7.39;100.00
37132;BME280;23035;50.032;21.978;2023-04-15T23:36:13;65988.41;;;7.76;100.00
37132;BME280;23035;50.032;21.978;2023-04-15T23:41:19;65977.19;;;7.65;100.00
37132;BME280;23035;50.032;21.978;2023-04-15T23:46:23;66099.34;;;8.84;100.00
37132;BME280;23035;50.032;21.978;2023-04-15T23:51:27;66066.78;;;8.55;100.00
37132;BME280;23035;50.032;21.978;2023-04-15T23:56:33;66048.47;;;8.36;100.00
